• Join FlightAware (Why Join?)
  • Login
  • US Flag 
08:36PM EDT


 

Airport Tracker/Info


-or-


 

Live Flight TrackerFlight Track Log ✈ UPS1122 ✈ 19-Jun-2013 ✈ KBDL - KALB

Flight Track Log - Related Links

Times and Time Zones

All times are in EDT time to prevent confusion due to time zone crossing. See the UPS1122 flight status page for this flight to view local times or setup timezone preferences in your user account.

Time Position Orientation Groundspeed Altitude Reporting Facility
EDT Latitude Longitude Course Direction KTS MPH feet Rate Location/Type
06:25AM 41.9417 -72.6997 311° West 153 176 1,500  Level Boston Center
06:25AM 41.9561 -72.7219 311° West 153 176 2,900 2,400 Climbing Boston Center
06:26AM 41.9997 -72.7781 316° Northwest 237 273 5,200 3,000 Climbing Boston Center
06:27AM 42.0494 -72.8456 315° West 260 299 9,000 2,400 Climbing Boston Center
06:28AM 42.0953 -72.9131 312° West 296 341 10,000 600 Climbing Boston Center
06:29AM 42.1531 -72.9944 314° West 346 398 10,100  Climbing Boston Center
06:30AM 42.2067 -73.0903 307° West 328 377 10,000 -60 Descending Boston Center
06:31AM 42.2564 -73.1806 307° West 262 302 10,000  Level Boston Center
06:32AM 42.2953 -73.2653 302° West 264 304 10,000 -240 Level Boston Center
06:33AM 42.3364 -73.3528 302° West 271 312 9,600 -960 Descending Boston Center
06:34AM 42.3794 -73.4322 306° West 269 310 8,100 -1,440 Descending Boston Center
06:35AM 42.4203 -73.5172 303° West 264 304 6,700 -1,440 Descending Boston Center
06:36AM 42.4592 -73.5967 304° West 253 291 5,300 -1,680 Descending Boston Center
06:37AM 42.4978 -73.6736 304° West 250 288 3,300 -1,440 Descending Boston Center
06:38AM 42.5344 -73.7558 301° West 251 289 2,500 -420 Descending Boston Center
06:39AM 42.5756 -73.8019 320° Northwest 168 193 2,500  Level Boston Center
06:40AM 42.6194 -73.8000 North 146 168 2,500 -360 Level Boston Center
06:41AM 42.6589 -73.8036 356° North 135 155 1,800 -660 Descending Boston Center
06:42AM 42.6903 -73.8044 359° North 107 123 1,200 -600 Descending Boston Center
06:43AM 42.7172 -73.8050 359° North 98 113 700 -600 Descending Boston Center